Time,TemperatureF,DewpointF,PressureIn,WindDirection,WindDirectionDegrees,WindSpeedMPH,WindSpeedGustMPH,Humidity,HourlyPrecipIn,Conditions,Clouds,dailyrainin,SolarRadiationWatts/m^2,SoftwareType,DateUTC
2013-02-12 00:10:00,49.0,31.2,29.63,NNW,329,11.0,16.0,50,0.00,,,0.00,0,Wunderground v.1.15,2013-02-11 23:10:00,
2013-02-12 00:20:00,49.0,31.6,29.64,NNW,330,8.0,8.0,51,0.00,,,0.00,0,Wunderground v.1.15,2013-02-11 23:20:00,
2013-02-12 00:30:00,49.1,31.7,29.65,WSW,252,9.0,9.0,51,0.00,,,0.00,0,Wunderground v.1.15,2013-02-11 23:30:00,
2013-02-12 00:40:00,48.8,31.9,29.66,SW,223,6.0,6.0,52,0.00,,,0.00,0,Wunderground v.1.15,2013-02-11 23:40:00,
2013-02-12 00:50:00,48.7,32.3,29.66,SSW,194,6.0,7.0,53,0.00,,,0.00,0,Wunderground v.1.15,2013-02-11 23:50:00,
2013-02-12 01:05:00,48.8,31.9,29.66,SSW,192,3.0,3.0,52,0.00,,,0.00,0,Wunderground v.1.15,2013-02-12 00:05:00,
2013-02-12 01:15:00,48.6,31.3,29.66,SSW,210,4.0,9.0,51,0.00,,,0.00,0,Wunderground v.1.15,2013-02-12 00:15:00,
2013-02-12 01:30:00,48.9,33.4,29.65,WNW,294,6.0,6.0,55,0.00,,,0.00,0,Wunderground v.1.15,2013-02-12 00:30:00,
2013-02-12 01:40:00,49.0,33.1,29.64,West,280,5.0,5.0,54,0.00,,,0.00,0,Wunderground v.1.15,2013-02-12 00:40:00,
2013-02-12 01:50:00,49.1,33.2,29.64,NW,325,5.0,6.0,54,0.00,,,0.00,0,Wunderground v.1.15,2013-02-12 00:50:00,
2013-02-12 02:05:00,49.2,32.3,29.64,West,261,7.0,8.0,52,0.00,,,0.00,0,Wunderground v.1.15,2013-02-12 01:05:00,
2013-02-12 02:16:00,49.4,32.5,29.64,WNW,291,7.0,7.0,52,0.00,,,0.00,0,Wunderground v.1.15,2013-02-12 01:16:00,
2013-02-12 02:25:00,49.4,31.5,29.64,WNW,282,8.0,8.0,50,0.00,,,0.00,0,Wunderground v.1.15,2013-02-12 01:25:00,
2013-02-12 02:35:00,49.5,31.6,29.65,WNW,291,6.0,7.0,50,0.00,,,0.00,0,Wunderground v.1.15,2013-02-12 01:35:00,
2013-02-12 02:45:00,49.5,32.1,29.65,WNW,282,7.0,7.0,51,0.00,,,0.00,0,Wunderground v.1.15,2013-02-12 01:45:00,
2013-02-12 02:55:00,49.4,33.4,29.65,West,281,7.0,7.0,54,0.00,,,0.00,0,Wunderground v.1.15,2013-02-12 01:55:00,
2013-02-12 03:10:00,49.4,33.9,29.63,WSW,257,6.0,6.0,55,0.00,,,0.00,0,Wunderground v.1.15,2013-02-12 02:10:00,
2013-02-12 03:20:00,49.3,31.9,29.63,WSW,257,6.0,12.0,51,0.00,,,0.00,0,Wunderground v.1.15,2013-02-12 02:20:00,
2013-02-12 03:26:00,49.5,31.1,29.63,West,261,8.0,12.0,49,0.00,,,0.00,0,Wunderground v.1.15,2013-02-12 02:26:00,
2013-02-12 03:40:00,49.6,32.2,29.63,NW,314,7.0,8.0,51,0.00,,,0.00,0,Wunderground v.1.15,2013-02-12 02:40:00,
2013-02-12 03:51:00,49.8,32.9,29.62,WNW,299,8.0,8.0,52,0.00,,,0.00,0,Wunderground v.1.15,2013-02-12 02:51:00,
2013-02-12 04:05:00,49.8,32.9,29.61,WNW,296,8.0,8.0,52,0.00,,,0.00,0,Wunderground v.1.15,2013-02-12 03:05:00,
2013-02-12 04:15:00,50.0,28.4,29.59,NW,309,9.0,9.0,43,0.00,,,0.00,0,Wunderground v.1.15,2013-02-12 03:15:00,
2013-02-12 04:26:00,50.3,29.2,29.59,NNW,329,11.0,11.0,44,0.00,,,0.00,0,Wunderground v.1.15,2013-02-12 03:26:00,
2013-02-12 04:40:00,50.3,30.8,29.59,WNW,302,11.0,11.0,47,0.00,,,0.00,0,Wunderground v.1.15,2013-02-12 03:40:00,
2013-02-12 04:50:00,50.0,31.6,29.59,NNW,338,9.0,9.0,49,0.00,,,0.00,0,Wunderground v.1.15,2013-02-12 03:50:00,
2013-02-12 04:56:00,50.0,31.1,29.59,WNW,286,9.0,9.0,48,0.00,,,0.00,0,Wunderground v.1.15,2013-02-12 03:56:00,
2013-02-12 05:05:00,49.9,31.5,29.60,NNW,346,7.0,7.0,49,0.00,,,0.00,0,Wunderground v.1.15,2013-02-12 04:05:00,
2013-02-12 05:15:00,49.8,30.9,29.60,WNW,296,9.0,9.0,48,0.00,,,0.00,0,Wunderground v.1.15,2013-02-12 04:15:00,
2013-02-12 05:25:00,49.8,29.8,29.61,NNW,343,10.0,15.0,46,0.00,,,0.00,0,Wunderground v.1.15,2013-02-12 04:25:00,
2013-02-12 05:31:00,49.9,28.8,29.61,WNW,299,11.0,15.0,44,0.00,,,0.00,0,Wunderground v.1.15,2013-02-12 04:31:00,
2013-02-12 05:45:00,49.8,30.4,29.62,NW,324,10.0,10.0,47,0.00,,,0.00,0,Wunderground v.1.15,2013-02-12 04:45:00,
2013-02-12 05:51:00,49.7,29.7,29.62,NW,308,9.0,10.0,46,0.00,,,0.00,0,Wunderground v.1.15,2013-02-12 04:51:00,
2013-02-12 06:05:00,49.6,30.7,29.62,NNW,340,8.0,15.0,48,0.00,,,0.00,0,Wunderground v.1.15,2013-02-12 05:05:00,
2013-02-12 06:10:00,49.4,31.0,29.61,WNW,298,8.0,15.0,49,0.00,,,0.00,0,Wunderground v.1.15,2013-02-12 05:10:00,
2013-02-12 06:15:00,49.2,31.3,29.61,WNW,299,8.0,8.0,50,0.00,,,0.00,0,Wunderground v.1.15,2013-02-12 05:15:00,
2013-02-12 06:26:00,49.1,31.2,29.61,West,277,6.0,7.0,50,0.00,,,0.00,0,Wunderground v.1.15,2013-02-12 05:26:00,
2013-02-12 06:40:00,49.1,32.2,29.63,NW,310,9.0,12.0,52,0.00,,,0.00,0,Wunderground v.1.15,2013-02-12 05:40:00,
2013-02-12 06:51:00,49.0,32.6,29.63,NW,310,9.0,9.0,53,0.00,,,0.00,0,Wunderground v.1.15,2013-02-12 05:51:00,
2013-02-12 06:55:00,48.9,32.0,29.62,SW,216,7.0,9.0,52,0.00,,,0.00,0,Wunderground v.1.15,2013-02-12 05:55:00,
2013-02-12 07:05:00,48.1,32.7,29.63,WNW,299,7.0,11.0,55,0.00,,,0.00,0,Wunderground v.1.15,2013-02-12 06:05:00,
2013-02-12 07:11:00,47.9,32.5,29.63,West,270,7.0,11.0,55,0.00,,,0.01,0,Wunderground v.1.15,2013-02-12 06:11:00,
2013-02-12 07:25:00,48.3,32.9,29.64,WNW,284,7.0,11.0,55,0.00,,,0.01,0,Wunderground v.1.15,2013-02-12 06:25:00,
2013-02-12 07:35:00,48.1,32.7,29.64,WSW,248,8.0,13.0,55,0.00,,,0.01,0,Wunderground v.1.15,2013-02-12 06:35:00,
2013-02-12 07:46:00,47.9,32.5,29.64,WNW,296,6.0,9.0,55,0.00,,,0.01,0,Wunderground v.1.15,2013-02-12 06:46:00,
2013-02-12 07:56:00,47.8,32.9,29.63,West,279,5.0,5.0,56,0.00,,,0.01,0,Wunderground v.1.15,2013-02-12 06:56:00,
2013-02-12 08:05:00,47.6,33.5,29.64,NW,305,6.0,12.0,58,0.00,,,0.01,9,Wunderground v.1.15,2013-02-12 07:05:00,
2013-02-12 08:15:00,47.3,34.1,29.64,NW,304,9.0,12.0,60,0.00,,,0.01,84,Wunderground v.1.15,2013-02-12 07:15:00,
2013-02-12 08:21:00,47.2,33.6,29.64,WSW,237,8.0,12.0,59,0.00,,,0.01,100,Wunderground v.1.15,2013-02-12 07:21:00,
2013-02-12 08:35:00,47.2,34.0,29.64,West,274,7.0,11.0,60,0.00,,,0.01,162,Wunderground v.1.15,2013-02-12 07:35:00,
2013-02-12 08:45:00,46.6,35.1,29.65,NW,309,8.0,8.0,64,0.07,,,0.02,104,Wunderground v.1.15,2013-02-12 07:45:00,
2013-02-12 08:51:00,46.3,35.2,29.65,WNW,299,7.0,8.0,65,0.07,,,0.02,109,Wunderground v.1.15,2013-02-12 07:51:00,
2013-02-12 09:05:00,45.1,35.5,29.65,SW,236,8.0,20.0,69,0.17,,,0.05,42,Wunderground v.1.15,2013-02-12 08:05:00,
2013-02-12 09:10:00,44.9,35.7,29.65,WNW,295,9.0,20.0,70,0.12,,,0.06,39,Wunderground v.1.15,2013-02-12 08:10:00,
2013-02-12 09:20:00,44.6,35.8,29.65,WNW,299,9.0,9.0,71,0.36,,,0.09,49,Wunderground v.1.15,2013-02-12 08:20:00,
2013-02-12 09:31:00,44.3,36.5,29.66,West,277,9.0,10.0,74,0.14,,,0.11,32,Wunderground v.1.15,2013-02-12 08:31:00,
2013-02-12 09:45:00,44.6,37.2,29.66,NNW,330,7.0,10.0,75,0.06,,,0.12,98,Wunderground v.1.15,2013-02-12 08:45:00,
2013-02-12 09:56:00,45.3,37.5,29.65,NNW,330,8.0,9.0,74,0.00,,,0.12,234,Wunderground v.1.15,2013-02-12 08:56:00,
2013-02-12 10:05:00,45.9,37.7,29.64,WNW,298,11.0,11.0,73,0.00,,,0.13,439,Wunderground v.1.15,2013-02-12 09:05:00,
2013-02-12 10:11:00,46.2,38.0,29.64,WNW,301,10.0,13.0,73,0.00,,,0.13,269,Wunderground v.1.15,2013-02-12 09:11:00,
2013-02-12 10:25:00,46.1,37.6,29.65,West,274,10.0,16.0,72,0.19,,,0.15,98,Wunderground v.1.15,2013-02-12 09:25:00,
2013-02-12 10:35:00,45.0,36.9,29.67,North,355,8.0,8.0,73,0.07,,,0.16,63,Wunderground v.1.15,2013-02-12 09:35:00,
2013-02-12 10:45:00,45.0,37.2,29.69,NNE,19,5.0,5.0,74,0.00,,,0.16,62,Wunderground v.1.15,2013-02-12 09:45:00,
2013-02-12 10:55:00,45.2,37.4,29.70,NNW,331,3.0,3.0,74,0.00,,,0.16,91,Wunderground v.1.15,2013-02-12 09:55:00,
2013-02-12 11:05:00,45.5,37.3,29.70,North,5,3.0,3.0,73,0.00,,,0.16,47,Wunderground v.1.15,2013-02-12 10:05:00,
2013-02-12 11:15:00,45.7,37.5,29.71,East,92,2.0,2.0,73,0.00,,,0.16,74,Wunderground v.1.15,2013-02-12 10:15:00,
2013-02-12 11:30:00,45.8,38.0,29.72,ESE,102,1.0,1.0,74,0.00,,,0.16,207,Wunderground v.1.15,2013-02-12 10:30:00,
2013-02-12 11:40:00,46.2,38.7,29.73,NW,317,2.0,3.0,75,0.00,,,0.16,362,Wunderground v.1.15,2013-02-12 10:40:00,
2013-02-12 11:50:00,46.8,38.6,29.73,North,360,3.0,3.0,73,0.00,,,0.16,128,Wunderground v.1.15,2013-02-12 10:50:00,
2013-02-12 11:55:00,47.1,38.5,29.74,North,9,3.0,7.0,72,0.00,,,0.17,95,Wunderground v.1.15,2013-02-12 10:55:00,
2013-02-12 12:10:00,46.4,38.6,29.76,North,355,4.0,4.0,74,0.07,,,0.17,223,Wunderground v.1.15,2013-02-12 11:10:00,
2013-02-12 12:20:00,45.9,38.4,29.76,WSW,241,3.0,3.0,75,0.00,,,0.17,373,Wunderground v.1.15,2013-02-12 11:20:00,
2013-02-12 12:30:00,47.0,39.5,29.76,NW,313,3.0,8.0,75,0.00,,,0.17,577,Wunderground v.1.15,2013-02-12 11:30:00,
2013-02-12 12:45:00,47.5,37.8,29.76,ENE,69,3.0,3.0,69,0.00,,,0.17,292,Wunderground v.1.15,2013-02-12 11:45:00,
2013-02-12 12:55:00,48.6,38.9,29.76,ENE,65,2.0,2.0,69,0.00,,,0.17,863,Wunderground v.1.15,2013-02-12 11:55:00,
2013-02-12 13:05:00,50.4,39.1,29.76,ENE,64,4.0,4.0,65,0.00,,,0.17,942,Wunderground v.1.15,2013-02-12 12:05:00,
2013-02-12 13:15:00,50.5,38.4,29.77,ENE,66,4.0,4.0,63,0.00,,,0.17,809,Wunderground v.1.15,2013-02-12 12:15:00,
2013-02-12 13:25:00,51.1,38.1,29.78,NNE,29,3.0,3.0,61,0.00,,,0.17,573,Wunderground v.1.15,2013-02-12 12:25:00,
2013-02-12 13:40:00,51.9,37.1,29.78,NE,44,3.0,4.0,57,0.00,,,0.17,687,Wunderground v.1.15,2013-02-12 12:40:00,
2013-02-12 13:55:00,52.6,35.9,29.79,North,349,4.0,4.0,53,0.00,,,0.17,817,Wunderground v.1.15,2013-02-12 12:55:00,
2013-02-12 14:05:00,52.6,35.5,29.79,WNW,287,5.0,9.0,52,0.00,,,0.17,835,Wunderground v.1.15,2013-02-12 13:05:00,
2013-02-12 14:20:00,51.8,34.7,29.79,NNE,24,5.0,5.0,52,0.00,,,0.17,334,Wunderground v.1.15,2013-02-12 13:20:00,
2013-02-12 14:30:00,51.1,35.0,29.80,NNE,19,5.0,5.0,54,0.00,,,0.17,214,Wunderground v.1.15,2013-02-12 13:30:00,
2013-02-12 14:40:00,50.6,35.0,29.80,NE,53,4.0,4.0,55,0.00,,,0.17,306,Wunderground v.1.15,2013-02-12 13:40:00,
2013-02-12 14:51:00,50.8,35.2,29.80,NNW,347,5.0,5.0,55,0.00,,,0.17,336,Wunderground v.1.15,2013-02-12 13:51:00,
2013-02-12 15:05:00,50.7,35.6,29.80,North,10,3.0,3.0,56,0.00,,,0.17,696,Wunderground v.1.15,2013-02-12 14:05:00,
2013-02-12 15:15:00,50.7,35.6,29.80,ENE,59,3.0,3.0,56,0.00,,,0.17,299,Wunderground v.1.15,2013-02-12 14:15:00,
2013-02-12 15:25:00,50.8,35.2,29.81,NNE,16,4.0,4.0,55,0.00,,,0.17,548,Wunderground v.1.15,2013-02-12 14:25:00,
2013-02-12 15:40:00,51.6,35.0,29.81,NNW,336,4.0,4.0,53,0.00,,,0.17,499,Wunderground v.1.15,2013-02-12 14:40:00,
2013-02-12 15:50:00,51.4,34.3,29.81,WNW,282,5.0,5.0,52,0.00,,,0.17,485,Wunderground v.1.15,2013-02-12 14:50:00,
2013-02-12 16:05:00,51.4,35.3,29.82,WSW,250,2.0,4.0,54,0.00,,,0.17,450,Wunderground v.1.15,2013-02-12 15:05:00,
2013-02-12 16:15:00,51.5,35.9,29.82,WSW,249,5.0,6.0,55,0.00,,,0.17,392,Wunderground v.1.15,2013-02-12 15:15:00,
2013-02-12 16:25:00,51.3,36.1,29.83,West,278,5.0,5.0,56,0.00,,,0.17,364,Wunderground v.1.15,2013-02-12 15:25:00,
2013-02-12 16:40:00,50.7,36.0,29.83,NNW,331,5.0,5.0,57,0.00,,,0.17,302,Wunderground v.1.15,2013-02-12 15:40:00,
2013-02-12 16:50:00,50.5,36.3,29.83,WSW,241,5.0,5.0,58,0.00,,,0.17,272,Wunderground v.1.15,2013-02-12 15:50:00,
2013-02-12 16:56:00,50.5,36.3,29.83,NW,318,4.0,5.0,58,0.00,,,0.17,257,Wunderground v.1.15,2013-02-12 15:56:00,
2013-02-12 17:05:00,50.4,35.7,29.83,West,278,4.0,6.0,57,0.00,,,0.17,218,Wunderground v.1.15,2013-02-12 16:05:00,
2013-02-12 17:11:00,50.4,35.3,29.83,WNW,300,4.0,6.0,56,0.00,,,0.17,46,Wunderground v.1.15,2013-02-12 16:11:00,
2013-02-12 17:25:00,50.2,36.0,29.83,West,277,3.0,3.0,58,0.00,,,0.17,49,Wunderground v.1.15,2013-02-12 16:25:00,
2013-02-12 17:35:00,49.8,36.0,29.83,WNW,298,4.0,4.0,59,0.00,,,0.17,120,Wunderground v.1.15,2013-02-12 16:35:00,
2013-02-12 17:45:00,49.4,36.1,29.83,West,274,4.0,4.0,60,0.00,,,0.17,25,Wunderground v.1.15,2013-02-12 16:45:00,
2013-02-12 17:56:00,48.9,35.6,29.83,West,277,4.0,5.0,60,0.00,,,0.17,18,Wunderground v.1.15,2013-02-12 16:56:00,
2013-02-12 18:10:00,48.4,35.6,29.84,West,266,4.0,4.0,61,0.00,,,0.17,9,Wunderground v.1.15,2013-02-12 17:10:00,
2013-02-12 18:20:00,48.1,35.7,29.84,WSW,247,2.0,2.0,62,0.00,,,0.17,5,Wunderground v.1.15,2013-02-12 17:20:00,
2013-02-12 18:35:00,47.7,35.7,29.84,WSW,245,3.0,7.0,63,0.00,,,0.17,0,Wunderground v.1.15,2013-02-12 17:35:00,
2013-02-12 18:45:00,47.7,36.1,29.85,SW,234,5.0,5.0,64,0.00,,,0.17,0,Wunderground v.1.15,2013-02-12 17:45:00,
2013-02-12 18:55:00,47.6,36.0,29.85,WSW,252,3.0,3.0,64,0.00,,,0.17,0,Wunderground v.1.15,2013-02-12 17:55:00,
2013-02-12 19:10:00,47.4,36.2,29.86,South,190,2.0,2.0,65,0.00,,,0.17,0,Wunderground v.1.15,2013-02-12 18:10:00,
2013-02-12 19:21:00,47.3,36.1,29.85,West,281,3.0,3.0,65,0.00,,,0.17,0,Wunderground v.1.15,2013-02-12 18:21:00,
2013-02-12 19:35:00,47.7,36.9,29.86,West,279,4.0,4.0,66,0.00,,,0.17,0,Wunderground v.1.15,2013-02-12 18:35:00,
2013-02-12 19:45:00,47.7,36.9,29.87,West,260,3.0,3.0,66,0.00,,,0.17,0,Wunderground v.1.15,2013-02-12 18:45:00,
2013-02-12 19:55:00,47.6,36.8,29.87,NW,321,2.0,3.0,66,0.00,,,0.17,0,Wunderground v.1.15,2013-02-12 18:55:00,
2013-02-12 20:05:00,47.7,36.9,29.87,West,263,3.0,8.0,66,0.00,,,0.17,0,Wunderground v.1.15,2013-02-12 19:05:00,
2013-02-12 20:20:00,48.0,36.8,29.88,SW,229,3.0,3.0,65,0.00,,,0.17,0,Wunderground v.1.15,2013-02-12 19:20:00,
2013-02-12 20:30:00,48.1,37.3,29.88,WNW,283,4.0,6.0,66,0.00,,,0.17,0,Wunderground v.1.15,2013-02-12 19:30:00,
2013-02-12 20:40:00,48.5,37.3,29.89,WSW,241,5.0,5.0,65,0.00,,,0.17,0,Wunderground v.1.15,2013-02-12 19:40:00,
2013-02-12 20:50:00,49.0,37.3,29.89,NW,317,6.0,6.0,64,0.00,,,0.17,0,Wunderground v.1.15,2013-02-12 19:50:00,
2013-02-12 21:05:00,49.3,37.2,29.90,West,276,4.0,7.0,63,0.00,,,0.17,0,Wunderground v.1.15,2013-02-12 20:05:00,
2013-02-12 21:15:00,49.5,37.4,29.91,WNW,298,3.0,3.0,63,0.00,,,0.17,0,Wunderground v.1.15,2013-02-12 20:15:00,
2013-02-12 21:25:00,49.4,37.3,29.91,West,264,3.0,4.0,63,0.00,,,0.17,0,Wunderground v.1.15,2013-02-12 20:25:00,
2013-02-12 21:31:00,49.5,37.8,29.91,SW,227,4.0,4.0,64,0.00,,,0.17,0,Wunderground v.1.15,2013-02-12 20:31:00,
2013-02-12 21:45:00,49.4,37.7,29.91,NW,304,2.0,5.0,64,0.00,,,0.17,0,Wunderground v.1.15,2013-02-12 20:45:00,
2013-02-12 21:51:00,49.4,37.7,29.92,WNW,288,4.0,5.0,64,0.00,,,0.17,0,Wunderground v.1.15,2013-02-12 20:51:00,
2013-02-12 22:10:00,49.4,37.7,29.91,West,265,1.0,6.0,64,0.00,,,0.17,0,Wunderground v.1.15,2013-02-12 21:10:00,
2013-02-12 22:20:00,49.3,37.6,29.91,West,271,3.0,3.0,64,0.00,,,0.17,0,Wunderground v.1.15,2013-02-12 21:20:00,
2013-02-12 22:30:00,49.3,38.0,29.91,SW,230,3.0,4.0,65,0.00,,,0.17,0,Wunderground v.1.15,2013-02-12 21:30:00,
2013-02-12 22:40:00,49.3,38.0,29.91,West,280,3.0,3.0,65,0.00,,,0.17,0,Wunderground v.1.15,2013-02-12 21:40:00,
2013-02-12 22:51:00,49.4,38.1,29.92,WNW,303,3.0,3.0,65,0.00,,,0.17,0,Wunderground v.1.15,2013-02-12 21:51:00,
2013-02-12 23:05:00,49.3,38.0,29.92,SW,232,2.0,2.0,65,0.00,,,0.17,0,Wunderground v.1.15,2013-02-12 22:05:00,
2013-02-12 23:11:00,49.3,38.0,29.92,SW,227,1.0,2.0,65,0.00,,,0.17,0,Wunderground v.1.15,2013-02-12 22:11:00,
2013-02-12 23:25:00,49.4,38.1,29.92,WNW,303,3.0,3.0,65,0.00,,,0.17,0,Wunderground v.1.15,2013-02-12 22:25:00,
2013-02-12 23:31:00,49.5,38.6,29.92,West,272,3.0,4.0,66,0.00,,,0.17,0,Wunderground v.1.15,2013-02-12 22:31:00,
2013-02-12 23:45:00,49.7,38.8,29.92,WSW,254,5.0,5.0,66,0.00,,,0.17,0,Wunderground v.1.15,2013-02-12 22:45:00,
2013-02-12 23:55:00,49.5,38.2,29.92,WSW,240,3.0,3.0,65,0.00,,,0.17,0,Wunderground v.1.15,2013-02-12 22:55:00,